Time;durP1;ratioP1;P1;durP2;ratioP2;P2;SDS_P1;SDS_P2;PMS_P1;PMS_P2;Temp;Humidity;BMP_temperature;BMP_pressure;BME280_temperature;BME280_humidity;BME280_pressure;Samples;Min_cycle;Max_cycle;Signal;HPM_P1;HPM_P2
2021/11/02 00:02:23;;;;;;;10.30;3.47;;;;;;;;;;5034783;28;20399;-76
2021/11/02 00:04:50;;;;;;;14.57;4.37;;;;;;;;;;5034671;28;20411;-76
2021/11/02 00:07:17;;;;;;;11.07;3.97;;;;;;;;;;5034642;28;20400;-76
2021/11/02 00:09:49;;;;;;;9.50;3.80;;;;;;;;;;5045694;28;20775;-76
2021/11/02 00:12:16;;;;;;;13.43;3.07;;;;;;;;;;5032742;28;20513;-76
2021/11/02 00:14:59;;;;;;;14.10;4.77;;;;;;;;;;5033361;28;20510;-76
2021/11/02 00:17:31;;;;;;;16.23;4.47;;;;;;;;;;5035642;28;20504;-75
2021/11/02 00:20:00;;;;;;;14.30;3.87;;;;;;;;;;5052663;28;20438;-75
2021/11/02 00:22:32;;;;;;;14.33;3.13;;;;;;;;;;5054008;28;20741;-76
2021/11/02 00:25:07;;;;;;;5.73;2.63;;;;;;;;;;5040028;28;20896;-76
2021/11/02 00:27:35;;;;;;;16.60;5.20;;;;;;;;;;5034517;28;20422;-76
2021/11/02 00:30:12;;;;;;;8.03;3.50;;;7.00;1.00;;;;;;5034936;28;20753;-76
2021/11/02 00:32:39;;;;;;;9.37;4.20;;;7.00;1.00;;;;;;5034069;28;20425;-75
2021/11/02 00:35:07;;;;;;;9.70;3.40;;;7.00;1.00;;;;;;5033956;28;20423;-75
2021/11/02 00:37:33;;;;;;;7.43;3.90;;;;;;;;;;5033942;28;20458;-76
2021/11/02 00:40:01;;;;;;;14.20;4.33;;;;;;;;;;5051721;28;20407;-76
2021/11/02 00:42:33;;;;;;;10.23;3.20;;;;;;;;;;5042024;28;20427;-78
2021/11/02 00:45:01;;;;;;;7.90;3.57;;;;;;;;;;5034291;28;20407;-76
2021/11/02 00:47:49;;;;;;;10.47;3.77;;;7.10;1.00;;;;;;5033956;28;20537;-76
2021/11/02 00:50:18;;;;;;;12.23;3.70;;;7.20;1.00;;;;;;5043041;28;20426;-77
2021/11/02 00:52:44;;;;;;;11.90;3.47;;;;;;;;;;5033927;28;20433;-76
2021/11/02 00:55:17;;;;;;;13.50;3.87;;;;;;;;;;5034316;28;20505;-76
2021/11/02 00:57:47;;;;;;;16.13;5.00;;;;;;;;;;5033821;28;20791;-76
2021/11/02 01:00:24;;;;;;;9.17;3.47;;;;;;;;;;5040151;28;20437;-76
2021/11/02 01:02:50;;;;;;;10.80;3.50;;;;;;;;;;5033924;28;20434;-76
2021/11/02 01:05:18;;;;;;;14.23;3.63;;;;;;;;;;5033847;28;20882;-76
2021/11/02 01:07:44;;;;;;;10.30;3.50;;;;;;;;;;5032529;28;21043;-76
2021/11/02 01:10:15;;;;;;;8.10;3.20;;;7.50;1.00;;;;;;5034558;28;20423;-77
2021/11/02 01:12:44;;;;;;;10.00;3.80;;;7.50;1.00;;;;;;5013998;28;20816;-77
2021/11/02 01:15:16;;;;;;;13.00;3.53;;;7.50;1.00;;;;;;5028355;28;20501;-76
2021/11/02 01:17:42;;;;;;;15.00;3.80;;;;;;;;;;5036335;28;20454;-76
2021/11/02 01:20:11;;;;;;;13.93;4.40;;;7.80;1.00;;;;;;5033701;28;20427;-76
2021/11/02 01:22:37;;;;;;;7.47;3.37;;;;;;;;;;5033687;28;20427;-76
2021/11/02 01:25:03;;;;;;;17.13;5.00;;;;;;;;;;5036311;28;20411;-76
2021/11/02 01:27:36;;;;;;;7.60;3.40;;;;;;;;;;5036508;28;20824;-76
2021/11/02 01:30:03;;;;;;;10.50;3.50;;;7.70;1.00;;;;;;5047890;28;20520;-76
2021/11/02 01:32:29;;;;;;;11.83;3.23;;;;;;;;;;5037561;28;20472;-76
2021/11/02 01:35:06;;;;;;;8.47;3.03;;;;;;;;;;5037470;28;20907;-76
2021/11/02 01:37:39;;;;;;;10.37;4.10;;;;;;;;;;5035993;28;20516;-76
2021/11/02 01:40:09;;;;;;;5.33;2.63;;;;;;;;;;5051913;28;20425;-76
2021/11/02 01:42:42;;;;;;;15.20;3.77;;;;;;;;;;5037265;28;20406;-76
2021/11/02 01:45:12;;;;;;;21.20;3.70;;;;;;;;;;5030756;28;20508;-76
2021/11/02 01:47:43;;;;;;;12.53;3.67;;;7.70;1.00;;;;;;5057417;28;20393;-76
2021/11/02 01:50:12;;;;;;;9.50;4.00;;;;;;;;;;5039088;28;20984;-76
2021/11/02 01:52:40;;;;;;;14.13;3.17;;;7.60;1.00;;;;;;5037240;28;20411;-76
2021/11/02 01:55:06;;;;;;;19.83;4.10;;;;;;;;;;5037725;28;20411;-75
2021/11/02 01:57:35;;;;;;;11.23;3.30;;;;;;;;;;5037015;28;20465;-76
2021/11/02 02:00:10;;;;;;;11.77;3.80;;;7.40;1.00;;;;;;5044199;28;20939;-76
2021/11/02 02:02:49;;;;;;;7.60;3.40;;;7.50;1.00;;;;;;5035560;28;20529;-75
2021/11/02 02:05:38;;;;;;;5.43;2.97;;;7.50;1.00;;;;;;5037008;28;20494;-76
2021/11/02 02:08:13;;;;;;;10.03;4.47;;;;;;;;;;5025446;28;20440;-76
2021/11/02 02:11:11;;;;;;;14.83;4.73;;;;;;;;;;5035276;28;20423;-76
2021/11/02 02:13:41;;;;;;;8.23;4.10;;;;;;;;;;5044259;28;20457;-77
2021/11/02 02:16:37;;;;;;;18.00;5.57;;;7.40;1.00;;;;;;5036680;28;20399;-77
2021/11/02 02:19:37;;;;;;;13.30;5.30;;;7.40;1.00;;;;;;5038541;28;20458;-76
2021/11/02 02:22:11;;;;;;;20.25;4.15;;;;;;;;;;5036620;28;20862;-76
2021/11/02 02:25:18;;;;;;;10.17;3.53;;;7.50;1.00;;;;;;5037178;28;20187;-76
2021/11/02 02:27:59;;;;;;;6.30;3.07;;;;;;;;;;5026299;28;20909;-76
2021/11/02 02:30:40;;;;;;;13.23;3.67;;;7.60;1.00;;;;;;5049040;28;20411;-76
2021/11/02 02:33:12;;;;;;;14.23;3.60;;;7.60;1.00;;;;;;5035147;28;20410;-76
2021/11/02 02:35:40;;;;;;;8.30;3.30;;;7.60;1.00;;;;;;5035956;28;20481;-76
2021/11/02 02:38:08;;;;;;;10.43;3.47;;;7.70;1.00;;;;;;5037276;28;20454;-76
2021/11/02 02:40:35;;;;;;;6.30;3.40;;;7.70;1.00;;;;;;5036600;28;20431;-76
2021/11/02 02:43:06;;;;;;;17.70;3.10;;;;;;;;;;5036072;28;20812;-76
2021/11/02 02:45:34;;;;;;;14.47;3.73;;;;;;;;;;5036331;28;20474;-77
2021/11/02 02:48:14;;;;;;;9.90;3.93;;;7.70;1.00;;;;;;5041054;28;20954;-76
2021/11/02 02:50:41;;;;;;;7.87;3.60;;;7.70;1.00;;;;;;5036364;28;20419;-76
2021/11/02 02:53:11;;;;;;;9.17;3.57;;;;;;;;;;5041595;28;20433;-76
2021/11/02 02:55:37;;;;;;;9.40;3.43;;;;;;;;;;5036485;28;20427;-76
2021/11/02 02:58:05;;;;;;;9.10;4.17;;;;;;;;;;5043788;28;20466;-76
2021/11/02 03:00:36;;;;;;;10.00;3.00;;;;;;;;;;5043058;28;20426;-76
2021/11/02 03:03:03;;;;;;;4.63;2.43;;;7.80;1.00;;;;;;5035973;28;20407;-76
2021/11/02 03:05:49;;;;;;;11.83;3.40;;;;;;;;;;5045888;28;20787;-77
2021/11/02 03:08:18;;;;;;;9.80;3.70;;;;;;;;;;5035813;28;20431;-76
2021/11/02 03:10:44;;;;;;;5.27;3.33;;;8.00;1.00;;;;;;5035994;28;20407;-76
2021/11/02 03:13:14;;;;;;;4.03;2.60;;;8.00;1.00;;;;;;5035616;28;20457;-76
2021/11/02 03:15:55;;;;;;;11.17;3.73;;;8.00;1.00;;;;;;5035772;28;20449;-76
2021/11/02 03:54:53;;;;;;;12.10;6.10;;;8.60;1.00;;;;;;4954780;29;20952;-76
2021/11/02 04:28:08;;;;;;;16.93;7.30;;;;;;;;;;4992889;28;20415;-76
2021/11/02 04:30:54;;;;;;;13.07;6.63;;;8.90;1.00;;;;;;5034476;28;20406;-76
2021/11/02 05:46:49;;;;;;;57.43;19.80;;;;;;;;;;5033571;28;20406;-76
2021/11/02 05:58:04;;;;;;;19.13;7.30;;;8.80;1.00;;;;;;5037503;28;20790;-77
2021/11/02 06:00:29;;;;;;;10.77;6.47;;;8.70;1.00;;;;;;5037315;28;20423;-77
2021/11/02 06:28:32;;;;;;;7.20;5.00;;;8.30;1.00;;;;;;5036795;28;20842;-76
2021/11/02 06:31:21;;;;;;;12.97;6.60;;;8.40;1.00;;;;;;5037963;28;20473;-76
2021/11/02 06:36:49;;;;;;;8.50;5.63;;;8.30;1.00;;;;;;5036366;28;20424;-76
2021/11/02 06:40:01;;;;;;;12.10;6.37;;;8.40;1.00;;;;;;5037156;28;20443;-76
2021/11/02 06:47:53;;;;;;;77.87;10.40;;;8.70;1.00;;;;;;5030999;28;20441;-75
2021/11/02 07:18:07;;;;;;;7.70;5.50;;;9.70;1.00;;;;;;4931384;29;20459;-77
2021/11/02 08:47:09;;;;;;;9.97;6.73;;;10.70;1.00;;;;;;5031335;28;20422;-76
2021/11/02 08:49:41;;;;;;;10.60;6.83;;;10.80;1.00;;;;;;5030502;28;20441;-76
2021/11/02 08:52:07;;;;;;;11.53;7.10;;;;;;;;;;5032979;28;20419;-77
2021/11/02 08:54:36;;;;;;;10.10;6.77;;;11.00;1.00;;;;;;5038196;28;20406;-77
2021/11/02 08:57:02;;;;;;;13.27;7.20;;;11.00;1.00;;;;;;5032812;28;20466;-77
2021/11/02 08:59:33;;;;;;;12.83;6.93;;;;;;;;;;5033013;28;20418;-77
2021/11/02 09:02:03;;;;;;;11.53;5.90;;;11.10;1.00;;;;;;5032710;28;20406;-77
2021/11/02 09:04:31;;;;;;;14.27;7.10;;;11.20;1.00;;;;;;5032960;28;20419;-77
2021/11/02 09:07:01;;;;;;;8.73;6.03;;;11.20;1.00;;;;;;5032721;28;20440;-77
2021/11/02 09:09:31;;;;;;;12.93;6.37;;;11.20;1.00;;;;;;5031382;28;20431;-77
2021/11/02 09:12:01;;;;;;;9.10;6.03;;;11.30;1.00;;;;;;5032462;28;20426;-77
2021/11/02 09:14:31;;;;;;;9.13;5.53;;;11.30;1.00;;;;;;5033034;28;20427;-76
2021/11/02 09:16:59;;;;;;;8.43;5.53;;;11.20;1.00;;;;;;5032664;28;20463;-76
2021/11/02 09:19:28;;;;;;;8.10;5.43;;;11.20;1.00;;;;;;5032860;28;20461;-76
2021/11/02 09:21:55;;;;;;;11.43;6.50;;;11.30;1.00;;;;;;5032536;28;20533;-76
2021/11/02 09:24:21;;;;;;;8.70;6.00;;;11.40;1.00;;;;;;5032828;28;20501;-76
2021/11/02 09:26:48;;;;;;;10.30;6.23;;;11.50;1.00;;;;;;5032695;28;20429;-76
2021/11/02 09:29:20;;;;;;;9.10;5.77;;;11.50;1.00;;;;;;5033150;28;20577;-76
2021/11/02 09:31:46;;;;;;;11.27;6.67;;;11.50;1.00;;;;;;5032462;28;20423;-76
2021/11/02 09:34:17;;;;;;;10.07;5.23;;;11.60;1.00;;;;;;5032671;28;20513;-76
2021/11/02 09:36:56;;;;;;;8.90;5.70;;;11.60;1.00;;;;;;5032376;28;20429;-76
2021/11/02 09:39:25;;;;;;;10.50;6.07;;;11.70;1.00;;;;;;5032152;28;20952;-76
2021/11/02 09:42:12;;;;;;;10.17;6.00;;;11.70;1.00;;;;;;5032192;28;20427;-76
2021/11/02 09:45:02;;;;;;;8.47;5.50;;;11.70;1.00;;;;;;5032450;28;20422;-77
2021/11/02 09:47:43;;;;;;;8.77;5.60;;;11.90;1.00;;;;;;5036416;28;20905;-77
2021/11/02 09:50:23;;;;;;;6.83;5.17;;;11.90;1.00;;;;;;5036304;28;20471;-77
2021/11/02 09:53:26;;;;;;;9.23;5.57;;;11.90;1.00;;;;;;5036294;28;20429;-77
2021/11/02 09:56:10;;;;;;;8.83;5.60;;;12.00;1.00;;;;;;5036178;28;20421;-77
2021/11/02 09:58:57;;;;;;;12.33;6.30;;;12.00;1.00;;;;;;5036588;28;20465;-77
2021/11/02 10:01:32;;;;;;;7.70;5.00;;;12.10;1.00;;;;;;5036102;28;20406;-77
2021/11/02 10:04:24;;;;;;;8.03;4.97;;;12.20;1.00;;;;;;5035990;28;20410;-77
2021/11/02 10:07:07;;;;;;;7.10;5.40;;;12.40;1.00;;;;;;5034876;28;20438;-77
2021/11/02 10:09:38;;;;;;;6.80;5.30;;;12.60;1.00;;;;;;5035942;28;20779;-77
2021/11/02 10:12:15;;;;;;;7.50;5.03;;;12.80;1.00;;;;;;5036383;28;20700;-77
2021/11/02 10:15:19;;;;;;;8.50;4.80;;;13.00;1.00;;;;;;5036203;28;20418;-77
2021/11/02 10:18:06;;;;;;;6.53;4.30;;;13.00;1.00;;;;;;4993992;28;20545;-78
2021/11/02 10:20:59;;;;;;;7.80;3.70;;;12.90;1.00;;;;;;4989376;28;20491;-77
2021/11/02 10:23:55;;;;;;;3.83;3.43;;;12.90;1.00;;;;;;4977796;28;20464;-77
2021/11/02 10:26:24;;;;;;;5.80;3.60;;;12.90;1.00;;;;;;4994290;28;20425;-77
2021/11/02 10:29:08;;;;;;;7.07;3.43;;;13.00;1.00;;;;;;4996130;28;20800;-76
2021/11/02 10:31:55;;;;;;;4.00;2.70;;;13.00;1.00;;;;;;4997087;28;20918;-76
2021/11/02 10:34:35;;;;;;;3.13;2.63;;;13.00;1.00;;;;;;4989156;28;20441;-77
2021/11/02 10:37:24;;;;;;;4.70;2.90;;;13.20;1.00;;;;;;4993610;28;20507;-76
2021/11/02 10:40:08;;;;;;;11.93;2.80;;;13.30;1.00;;;;;;4988235;28;20432;-76
2021/11/02 10:42:54;;;;;;;3.27;2.97;;;13.50;1.00;;;;;;4993168;28;20428;-77
2021/11/02 10:45:24;;;;;;;4.67;2.60;;;13.50;1.00;;;;;;4993980;28;20537;-78
2021/11/02 10:48:11;;;;;;;4.90;2.50;;;13.60;1.00;;;;;;4993457;28;20484;-78
2021/11/02 10:50:44;;;;;;;4.27;3.20;;;13.70;1.00;;;;;;4993659;28;20434;-78
2021/11/02 10:53:17;;;;;;;3.63;2.80;;;13.90;1.00;;;;;;5009953;28;20419;-78
2021/11/02 10:56:03;;;;;;;3.90;2.43;;;14.10;1.00;;;;;;5033314;28;20423;-78
2021/11/02 10:58:56;;;;;;;2.13;1.90;;;14.20;1.00;;;;;;5034950;28;20462;-77
2021/11/02 11:01:23;;;;;;;1.93;1.80;;;14.10;1.00;;;;;;5033444;28;20427;-77
2021/11/02 11:03:49;;;;;;;5.53;2.03;;;14.00;1.00;;;;;;5034719;28;20411;-78
2021/11/02 11:06:15;;;;;;;4.40;1.43;;;14.10;1.00;;;;;;5035063;28;20426;-77
2021/11/02 11:08:44;;;;;;;1.27;1.17;;;14.00;1.00;;;;;;5034501;28;20522;-77
2021/11/02 11:11:14;;;;;;;1.87;1.57;;;13.80;1.00;;;;;;5034701;28;20423;-78
2021/11/02 11:13:48;;;;;;;2.70;1.67;;;13.80;1.00;;;;;;5034825;28;20951;-77
2021/11/02 11:16:15;;;;;;;1.13;1.13;;;13.70;1.00;;;;;;5034670;28;20423;-77
2021/11/02 11:18:53;;;;;;;2.10;1.10;;;13.70;1.00;;;;;;5032450;28;20467;-77
2021/11/02 11:21:20;;;;;;;3.63;0.97;;;13.60;1.00;;;;;;5034324;28;20496;-77
2021/11/02 11:23:54;;;;;;;5.27;1.70;;;13.50;1.00;;;;;;5034595;28;20423;-77
2021/11/02 11:26:23;;;;;;;3.63;1.57;;;13.30;1.00;;;;;;5034519;28;20426;-78
2021/11/02 11:28:55;;;;;;;1.93;1.30;;;13.30;1.00;;;;;;5039843;28;20457;-75
2021/11/02 11:31:22;;;;;;;2.50;1.10;;;13.20;1.00;;;;;;5033556;28;20431;-75
2021/11/02 11:33:56;;;;;;;5.90;1.50;;;13.10;1.00;;;;;;5034421;28;20423;-75
2021/11/02 11:36:25;;;;;;;5.77;1.57;;;12.90;1.00;;;;;;5034500;28;20419;-76
2021/11/02 11:38:51;;;;;;;2.43;1.93;;;;;;;;;;5034729;28;20458;-76
2021/11/02 11:41:19;;;;;;;5.03;1.93;;;12.60;1.00;;;;;;5034312;28;20458;-75
2021/11/02 11:43:49;;;;;;;1.53;1.30;;;12.50;1.00;;;;;;5033678;28;20431;-76
2021/11/02 11:46:18;;;;;;;2.63;1.50;;;12.40;1.00;;;;;;5034566;28;20426;-77
2021/11/02 11:48:52;;;;;;;2.40;1.77;;;12.20;1.00;;;;;;5033990;28;20932;-77
2021/11/02 11:51:27;;;;;;;3.43;1.47;;;12.00;1.00;;;;;;5034359;28;20418;-76
2021/11/02 11:54:02;;;;;;;1.93;1.80;;;11.90;1.00;;;;;;5033847;28;20422;-77
2021/11/02 11:56:33;;;;;;;1.70;1.53;;;11.90;1.00;;;;;;5033954;28;20425;-77
2021/11/02 11:59:01;;;;;;;3.20;1.90;;;11.80;1.00;;;;;;5033858;28;20473;-78
2021/11/02 12:01:42;;;;;;;2.57;2.17;;;11.70;1.00;;;;;;5034239;28;20466;-77
2021/11/02 12:04:21;;;;;;;3.53;2.77;;;11.70;1.00;;;;;;5033796;28;20457;-78
2021/11/02 12:07:00;;;;;;;3.57;2.27;;;11.60;1.00;;;;;;5032342;28;20426;-77
2021/11/02 12:09:26;;;;;;;11.33;2.40;;;11.60;1.00;;;;;;5037183;28;20429;-78
2021/11/02 12:12:06;;;;;;;2.90;2.27;;;11.60;1.00;;;;;;5039035;28;20960;-77
2021/11/02 12:14:53;;;;;;;4.77;2.60;;;11.50;1.00;;;;;;5034537;28;20437;-76
2021/11/02 12:17:31;;;;;;;8.93;3.00;;;11.60;1.00;;;;;;5034456;28;20465;-76
2021/11/02 12:20:03;;;;;;;3.97;3.10;;;11.60;1.00;;;;;;5036563;28;20434;-76
2021/11/02 12:22:55;;;;;;;5.03;3.20;;;11.60;1.00;;;;;;5034584;28;20537;-76
2021/11/02 12:25:37;;;;;;;3.63;2.83;;;11.70;1.00;;;;;;5033815;28;20466;-76
2021/11/02 12:28:04;;;;;;;4.60;3.43;;;;;;;;;;5025161;28;20767;-76
2021/11/02 12:30:38;;;;;;;9.80;3.43;;;11.60;1.00;;;;;;5033220;28;20513;-76
2021/11/02 12:33:10;;;;;;;7.80;3.60;;;11.60;1.00;;;;;;5032143;28;20913;-76
2021/11/02 12:35:52;;;;;;;6.03;3.30;;;11.60;1.00;;;;;;5033689;28;20418;-76
2021/11/02 12:38:47;;;;;;;5.13;3.57;;;11.60;1.00;;;;;;5033855;28;20545;-76
2021/11/02 12:41:22;;;;;;;3.30;3.00;;;11.60;1.00;;;;;;5031776;28;20431;-76
2021/11/02 12:44:24;;;;;;;4.20;2.90;;;11.50;1.00;;;;;;5035059;28;20478;-76
2021/11/02 12:46:51;;;;;;;3.07;2.70;;;11.50;1.00;;;;;;4984562;28;20456;-76
2021/11/02 12:49:29;;;;;;;4.23;3.03;;;11.50;1.00;;;;;;4995661;28;20432;-76
2021/11/02 12:52:01;;;;;;;3.17;2.87;;;11.60;1.00;;;;;;4999767;28;20423;-76
2021/11/02 12:54:27;;;;;;;5.20;3.33;;;;;;;;;;4993007;28;20424;-76
2021/11/02 12:57:01;;;;;;;5.47;3.00;;;11.60;1.00;;;;;;4984122;28;20436;-77
2021/11/02 12:59:34;;;;;;;4.37;2.40;;;11.60;1.00;;;;;;5000219;28;20420;-76
2021/11/02 13:02:20;;;;;;;6.03;3.40;;;11.50;1.00;;;;;;4980587;28;20947;-76
2021/11/02 13:04:51;;;;;;;25.47;2.10;;;11.50;1.00;;;;;;4975700;28;20519;-76
2021/11/02 13:07:17;;;;;;;3.80;2.50;;;11.50;1.00;;;;;;4992540;28;20425;-76
2021/11/02 13:09:50;;;;;;;3.23;2.67;;;11.50;1.00;;;;;;4976364;28;20487;-76
2021/11/02 13:12:25;;;;;;;3.03;2.23;;;11.60;1.00;;;;;;4976299;28;20446;-76
2021/11/02 13:15:02;;;;;;;10.53;2.60;;;11.60;1.00;;;;;;4991290;28;20436;-77
2021/11/02 13:17:36;;;;;;;3.20;2.80;;;11.40;1.00;;;;;;4991277;28;20456;-77
2021/11/02 13:20:03;;;;;;;2.10;1.40;;;11.30;1.00;;;;;;4995095;28;20446;-78
2021/11/02 13:22:29;;;;;;;4.13;1.80;;;;;;;;;;5017777;28;20446;-78
2021/11/02 13:25:05;;;;;;;1.40;1.30;;;11.10;1.00;;;;;;5038933;28;20423;-79
2021/11/02 13:27:44;;;;;;;1.30;1.20;;;11.00;1.00;;;;;;5037144;28;20441;-79
2021/11/02 13:30:31;;;;;;;4.20;1.17;;;11.00;1.00;;;;;;5039083;28;20426;-77
2021/11/02 13:33:04;;;;;;;1.10;1.00;;;11.00;1.00;;;;;;5049050;28;20472;-76
2021/11/02 13:35:56;;;;;;;1.00;0.90;;;11.00;1.00;;;;;;5056577;28;20424;-76
2021/11/02 13:38:26;;;;;;;2.00;1.20;;;11.10;1.00;;;;;;4998175;28;20467;-76
2021/11/02 13:41:09;;;;;;;1.33;1.23;;;11.10;1.00;;;;;;4986108;28;20432;-76
2021/11/02 13:43:41;;;;;;;1.57;1.03;;;11.20;1.00;;;;;;4981843;28;20904;-76
2021/11/02 13:46:09;;;;;;;4.30;1.50;;;11.30;1.00;;;;;;4998813;28;20419;-76
2021/11/02 13:48:59;;;;;;;2.00;1.07;;;11.40;1.00;;;;;;4997387;28;20528;-76
2021/11/02 13:51:36;;;;;;;2.30;0.83;;;11.40;1.00;;;;;;4989576;28;20978;-76
2021/11/02 13:54:19;;;;;;;0.90;0.90;;;11.50;1.00;;;;;;4998506;28;20455;-76
2021/11/02 13:56:53;;;;;;;2.23;1.20;;;11.60;1.00;;;;;;4998240;28;20475;-76
2021/11/02 13:59:30;;;;;;;0.90;0.90;;;11.60;1.00;;;;;;4998891;28;20400;-76
2021/11/02 14:02:24;;;;;;;1.00;0.77;;;11.60;1.00;;;;;;4974320;28;20527;-76
2021/11/02 14:04:54;;;;;;;1.77;0.97;;;11.60;1.00;;;;;;4990130;28;20429;-76
2021/11/02 14:07:25;;;;;;;1.10;0.60;;;11.60;1.00;;;;;;4982704;28;20525;-75
2021/11/02 14:09:55;;;;;;;1.00;0.80;;;11.50;1.00;;;;;;5007044;28;20428;-74
2021/11/02 14:12:21;;;;;;;0.60;0.60;;;11.40;1.00;;;;;;4982106;28;20456;-76
2021/11/02 14:14:47;;;;;;;2.60;0.73;;;11.40;1.00;;;;;;4999094;28;20434;-75
2021/11/02 14:17:23;;;;;;;1.23;0.90;;;11.40;1.00;;;;;;5049104;28;20453;-74
2021/11/02 14:19:52;;;;;;;0.70;0.60;;;11.30;1.00;;;;;;5026749;28;20418;-75
2021/11/02 14:22:41;;;;;;;1.00;0.90;;;11.20;1.00;;;;;;5051979;28;20442;-75
2021/11/02 14:25:19;;;;;;;1.47;0.80;;;11.20;1.00;;;;;;5029633;28;20433;-76
2021/11/02 14:27:53;;;;;;;1.10;0.77;;;11.10;1.00;;;;;;5044526;28;20425;-78
2021/11/02 14:30:53;;;;;;;0.80;0.77;;;11.00;1.00;;;;;;5039680;28;20468;-75
2021/11/02 14:33:21;;;;;;;1.47;1.00;;;11.00;1.00;;;;;;5035599;28;20451;-76
2021/11/02 14:36:32;;;;;;;0.60;0.50;;;10.90;1.00;;;;;;5035112;28;20430;-77
2021/11/02 14:38:59;;;;;;;0.83;0.60;;;10.70;1.00;;;;;;4954165;28;20462;-77
2021/11/02 14:41:34;;;;;;;0.60;0.60;;;10.60;1.00;;;;;;4956435;29;20429;-76
2021/11/02 14:44:41;;;;;;;0.97;0.60;;;10.60;1.00;;;;;;4956004;29;20766;-77
2021/11/02 14:47:33;;;;;;;2.70;0.60;;;10.50;1.00;;;;;;4956424;29;20414;-75
2021/11/02 14:50:31;;;;;;;0.50;0.40;;;10.40;1.00;;;;;;4951548;29;20837;-75
2021/11/02 14:53:26;;;;;;;0.60;0.50;;;10.40;1.00;;;;;;4917511;29;20436;-75
2021/11/02 14:56:07;;;;;;;0.70;0.70;;;10.40;1.00;;;;;;4922298;29;20438;-75
2021/11/02 14:58:38;;;;;;;1.90;0.60;;;10.30;1.00;;;;;;4919894;29;20462;-75
2021/11/02 15:01:37;;;;;;;0.60;0.60;;;10.30;1.00;;;;;;4905994;29;20516;-77
2021/11/02 15:04:18;;;;;;;1.07;0.50;;;10.30;1.00;;;;;;4917479;29;20515;-77
2021/11/02 15:07:00;;;;;;;2.80;0.50;;;10.30;1.00;;;;;;4917362;29;20424;-77
2021/11/02 15:09:33;;;;;;;0.93;0.60;;;10.20;1.00;;;;;;4926847;29;20947;-77
2021/11/02 15:12:11;;;;;;;2.23;0.80;;;10.20;1.00;;;;;;4901638;29;20426;-77
2021/11/02 15:14:43;;;;;;;0.80;0.70;;;10.20;1.00;;;;;;4934644;28;20589;-77
2021/11/02 15:17:11;;;;;;;0.57;0.53;;;10.20;1.00;;;;;;4993482;28;20456;-77
2021/11/02 15:20:11;;;;;;;2.77;0.83;;;10.10;1.00;;;;;;4993978;28;20526;-77
2021/11/02 15:22:42;;;;;;;0.97;0.60;;;10.10;1.00;;;;;;4994159;28;20469;-77
2021/11/02 15:25:18;;;;;;;2.83;0.60;;;10.10;1.00;;;;;;4993910;28;20420;-77
2021/11/02 15:28:03;;;;;;;0.87;0.80;;;10.10;1.00;;;;;;5002728;28;20458;-77
2021/11/02 15:30:41;;;;;;;1.07;0.50;;;10.00;1.00;;;;;;5034084;28;20430;-76
2021/11/02 15:33:08;;;;;;;1.40;0.73;;;10.10;1.00;;;;;;5030433;28;20481;-82
2021/11/02 15:35:34;;;;;;;1.33;0.83;;;;;;;;;;5014367;28;20753;-77
2021/11/02 15:38:29;;;;;;;0.70;0.70;;;10.00;1.00;;;;;;5033357;28;20451;-75
2021/11/02 15:41:15;;;;;;;6.53;1.00;;;10.00;1.00;;;;;;5041422;28;20430;-78
2021/11/02 15:47:05;;;;;;;2.00;0.77;;;10.10;1.00;;;;;;5029992;28;20414;-78
2021/11/02 15:49:54;;;;;;;1.73;0.60;;;10.10;1.00;;;;;;5045623;28;20423;-76
2021/11/02 15:55:59;;;;;;;1.20;0.80;;;10.00;1.00;;;;;;5035024;28;20947;-79
2021/11/02 15:58:36;;;;;;;0.80;0.70;;;9.90;1.00;;;;;;5035481;28;20450;-76
2021/11/02 16:01:55;;;;;;;0.80;0.60;;;9.90;1.00;;;;;;5022272;28;20596;-77
2021/11/02 16:04:23;;;;;;;1.07;0.60;;;9.80;1.00;;;;;;4987645;28;20432;-77
2021/11/02 16:06:57;;;;;;;1.80;0.90;;;9.70;1.00;;;;;;4992064;28;20421;-80
2021/11/02 16:09:54;;;;;;;1.33;0.70;;;9.70;1.00;;;;;;4992384;28;20406;-80
2021/11/02 16:12:31;;;;;;;1.20;0.93;;;9.60;1.00;;;;;;4992568;28;20515;-77
2021/11/02 16:15:08;;;;;;;1.40;1.00;;;9.50;1.00;;;;;;4992767;28;20425;-78
2021/11/02 16:17:54;;;;;;;1.37;0.90;;;9.40;1.00;;;;;;4985633;28;20460;-78
2021/11/02 16:20:42;;;;;;;0.80;0.80;;;9.30;1.00;;;;;;4998428;28;20856;-79
2021/11/02 16:23:14;;;;;;;0.93;0.80;;;9.20;1.00;;;;;;4994952;28;20471;-79
2021/11/02 16:26:10;;;;;;;4.67;0.90;;;9.10;1.00;;;;;;4992745;28;20993;-79
2021/11/02 16:29:29;;;;;;;1.10;0.60;;;9.10;1.00;;;;;;4990789;28;20453;-81
2021/11/02 16:32:35;;;;;;;1.37;0.80;;;9.00;1.00;;;;;;4999979;28;20421;-77
2021/11/02 16:35:06;;;;;;;0.90;0.90;;;9.00;1.00;;;;;;4976542;28;20435;-78
2021/11/02 16:37:47;;;;;;;2.17;0.97;;;9.00;1.00;;;;;;4992387;28;20885;-76
2021/11/02 16:40:25;;;;;;;1.33;1.03;;;9.10;1.00;;;;;;5017455;28;20431;-77
2021/11/02 16:43:23;;;;;;;5.23;0.80;;;9.10;1.00;;;;;;5033784;28;20426;-79
2021/11/02 16:45:50;;;;;;;0.70;0.70;;;9.10;1.00;;;;;;5034276;28;20549;-78
2021/11/02 16:48:16;;;;;;;0.70;0.70;;;9.10;1.00;;;;;;5034347;28;20444;-79
2021/11/02 16:50:53;;;;;;;1.63;1.07;;;9.10;1.00;;;;;;5033899;28;20493;-78
2021/11/02 16:53:47;;;;;;;1.33;1.00;;;9.10;1.00;;;;;;5033281;28;20427;-78
2021/11/02 16:56:24;;;;;;;1.70;0.80;;;9.10;1.00;;;;;;5021805;28;20407;-77
2021/11/02 16:58:55;;;;;;;2.20;1.07;;;9.10;1.00;;;;;;5033490;28;20446;-78
2021/11/02 17:01:26;;;;;;;1.03;0.93;;;9.10;1.00;;;;;;5033317;28;20518;-78
2021/11/02 17:04:23;;;;;;;2.83;1.10;;;9.10;1.00;;;;;;5033732;28;20427;-80
2021/11/02 17:06:49;;;;;;;0.77;0.77;;;9.20;1.00;;;;;;5032827;28;20470;-80
2021/11/02 17:09:15;;;;;;;2.40;0.93;;;9.20;1.00;;;;;;5037530;28;20803;-80
2021/11/02 17:11:49;;;;;;;1.53;0.87;;;9.30;1.00;;;;;;5032684;28;20184;-80
2021/11/02 17:14:15;;;;;;;3.37;1.03;;;9.30;1.00;;;;;;5041475;28;20422;-78
2021/11/02 17:16:50;;;;;;;5.20;1.00;;;9.30;1.00;;;;;;5036906;28;20523;-78
2021/11/02 17:19:18;;;;;;;3.30;1.30;;;9.30;1.00;;;;;;5032809;28;20948;-78
2021/11/02 17:21:48;;;;;;;1.83;1.23;;;9.40;1.00;;;;;;5032673;28;20929;-79
2021/11/02 17:24:14;;;;;;;1.27;1.03;;;;;;;;;;5041648;28;20421;-78
2021/11/02 17:26:40;;;;;;;1.50;1.30;;;9.40;1.00;;;;;;5032739;28;20450;-78
2021/11/02 17:29:07;;;;;;;2.10;1.23;;;;;;;;;;5032572;28;20421;-78
2021/11/02 17:31:37;;;;;;;3.43;1.30;;;9.40;1.00;;;;;;5032568;28;20553;-78
2021/11/02 17:34:05;;;;;;;1.30;1.20;;;9.50;1.00;;;;;;5035565;28;20490;-78
2021/11/02 17:36:34;;;;;;;1.43;1.33;;;9.40;1.00;;;;;;5032678;28;20445;-78
2021/11/02 17:39:01;;;;;;;1.80;1.57;;;9.40;1.00;;;;;;5036868;28;20467;-77
2021/11/02 17:41:27;;;;;;;1.80;1.67;;;9.50;1.00;;;;;;5032534;28;20417;-77
2021/11/02 17:43:54;;;;;;;1.40;1.30;;;9.50;1.00;;;;;;5043282;28;20414;-78
2021/11/02 17:46:21;;;;;;;1.90;1.70;;;9.50;1.00;;;;;;5032866;28;20418;-78
2021/11/02 17:48:46;;;;;;;1.30;1.20;;;9.60;1.00;;;;;;5032532;28;20762;-77
2021/11/02 17:51:12;;;;;;;1.63;1.53;;;;;;;;;;5032503;28;20430;-78
2021/11/02 17:53:39;;;;;;;4.43;1.50;;;9.60;1.00;;;;;;5033513;28;20497;-77
2021/11/02 17:56:09;;;;;;;1.47;1.37;;;9.60;1.00;;;;;;5032430;28;20437;-75
2021/11/02 17:58:38;;;;;;;1.50;1.40;;;9.60;1.00;;;;;;5032553;28;20461;-76
2021/11/02 18:01:07;;;;;;;1.43;1.33;;;9.70;1.00;;;;;;5020869;28;20415;-77
2021/11/02 18:03:46;;;;;;;2.93;1.97;;;9.60;1.00;;;;;;5036115;28;20525;-77
2021/11/02 18:06:15;;;;;;;3.97;2.00;;;9.60;1.00;;;;;;5044332;28;20476;-77
2021/11/02 18:08:48;;;;;;;3.60;1.77;;;9.60;1.00;;;;;;5036717;28;20417;-77
2021/11/02 18:11:16;;;;;;;5.23;1.97;;;9.70;1.00;;;;;;5036715;28;20526;-77
2021/11/02 18:13:43;;;;;;;1.80;1.70;;;9.60;1.00;;;;;;5036095;28;20476;-77
2021/11/02 18:16:19;;;;;;;3.07;1.80;;;9.70;1.00;;;;;;5036817;28;20418;-77
2021/11/02 18:18:47;;;;;;;2.43;2.10;;;9.60;1.00;;;;;;5036420;28;20454;-78
2021/11/02 18:24:35;;;;;;;1.83;1.73;;;9.60;1.00;;;;;;5038964;28;20472;-78
2021/11/02 18:30:47;;;;;;;2.30;1.37;;;9.60;1.00;;;;;;5056198;28;20409;-79
2021/11/02 18:33:13;;;;;;;2.40;1.93;;;9.60;1.00;;;;;;5037899;28;20410;-79
2021/11/02 18:36:00;;;;;;;4.63;1.80;;;9.50;1.00;;;;;;5040936;28;21788;-76
2021/11/02 18:38:27;;;;;;;1.30;1.10;;;9.50;1.00;;;;;;5044678;28;20442;-76
2021/11/02 18:40:55;;;;;;;1.30;1.23;;;9.50;1.00;;;;;;5056149;28;20456;-77
2021/11/02 18:43:21;;;;;;;1.57;1.40;;;9.50;1.00;;;;;;5055859;28;20429;-77
2021/11/02 18:45:47;;;;;;;1.00;1.00;;;9.40;1.00;;;;;;5054269;28;20555;-77
2021/11/02 18:48:15;;;;;;;1.40;1.30;;;9.40;1.00;;;;;;5045237;28;20184;-78
2021/11/02 18:50:42;;;;;;;8.13;1.50;;;9.30;1.00;;;;;;5056140;28;20560;-78
2021/11/02 18:53:19;;;;;;;1.50;1.40;;;9.30;1.00;;;;;;5055241;28;20908;-79
2021/11/02 18:55:48;;;;;;;1.97;1.73;;;9.40;1.00;;;;;;5066127;28;20795;-78
2021/11/02 18:58:14;;;;;;;1.73;1.60;;;9.30;1.00;;;;;;5055791;28;20944;-78
2021/11/02 19:00:48;;;;;;;1.50;1.40;;;9.30;1.00;;;;;;5055602;28;20410;-79
2021/11/02 19:03:18;;;;;;;1.33;1.23;;;9.30;1.00;;;;;;5055255;28;20903;-78
2021/11/02 19:05:44;;;;;;;1.30;1.20;;;9.30;1.00;;;;;;5055119;28;20425;-79
2021/11/02 19:08:14;;;;;;;5.60;1.40;;;9.30;1.00;;;;;;5054496;28;20426;-78
2021/11/02 19:10:42;;;;;;;2.47;1.30;;;9.30;1.00;;;;;;5055282;28;20422;-77